TimeCDT,TemperatureF,Dew PointF,Humidity,Sea Level PressureIn,VisibilityMPH,Wind Direction,Wind SpeedMPH,Gust SpeedMPH,PrecipitationIn,Events,Conditions,WindDirDegrees,DateUTC
12:53 AM,75.0,70.0,84,29.87,10.0,Calm,Calm,-,N/A,,Clear,0,2012-09-04 05:53:00
1:53 AM,73.0,70.0,90,29.87,8.0,Calm,Calm,-,0.00,,Clear,0,2012-09-04 06:53:00
2:53 AM,73.9,70.0,87,29.87,10.0,ENE,4.6,-,0.00,,Scattered Clouds,70,2012-09-04 07:53:00
3:53 AM,73.0,70.0,90,29.86,9.0,Calm,Calm,-,0.01,,Partly Cloudy,0,2012-09-04 08:53:00
4:53 AM,72.0,70.0,93,29.86,8.0,NE,4.6,-,N/A,,Clear,50,2012-09-04 09:53:00
5:53 AM,70.0,68.0,93,29.86,6.0,Calm,Calm,-,N/A,,Clear,0,2012-09-04 10:53:00
6:53 AM,69.1,68.0,96,29.87,3.0,SE,5.8,-,N/A,,Clear,140,2012-09-04 11:53:00
7:53 AM,73.0,70.0,90,29.88,7.0,SSE,4.6,-,N/A,,Clear,160,2012-09-04 12:53:00
8:53 AM,77.0,71.1,82,29.88,10.0,South,6.9,-,N/A,,Clear,180,2012-09-04 13:53:00
9:53 AM,80.1,71.1,74,29.88,10.0,Calm,Calm,-,N/A,,Clear,0,2012-09-04 14:53:00
10:53 AM,84.9,69.1,59,29.88,10.0,WNW,6.9,-,0.00,Rain,Light Rain,290,2012-09-04 15:53:00
11:53 AM,87.1,69.1,55,29.86,10.0,WNW,5.8,-,0.00,,Clear,300,2012-09-04 16:53:00
12:53 PM,89.1,68.0,50,29.84,10.0,Calm,Calm,-,N/A,,Clear,0,2012-09-04 17:53:00
1:53 PM,91.9,68.0,45,29.82,10.0,West,9.2,-,N/A,,Clear,270,2012-09-04 18:53:00
2:53 PM,91.4,66.2,43,29.83,10.0,Calm,Calm,-,N/A,,Scattered Clouds,0,2012-09-04 19:53:00
3:53 PM,93.9,68.0,43,29.79,10.0,Variable,3.5,-,N/A,,Partly Cloudy,0,2012-09-04 20:53:00
4:53 PM,93.2,66.2,41,29.81,10.0,Variable,4.6,-,N/A,,Clear,0,2012-09-04 21:53:00
5:53 PM,93.0,64.9,39,29.78,10.0,West,5.8,-,N/A,,Clear,270,2012-09-04 22:53:00
6:53 PM,91.0,66.9,45,29.77,10.0,Calm,Calm,-,N/A,,Scattered Clouds,0,2012-09-04 23:53:00
7:53 PM,84.0,68.0,58,29.77,10.0,South,5.8,-,N/A,,Clear,180,2012-09-05 00:53:00
8:53 PM,80.1,69.1,69,29.77,10.0,South,5.8,-,N/A,,Clear,180,2012-09-05 01:53:00
9:53 PM,79.0,69.1,72,29.78,10.0,South,5.8,-,N/A,,Clear,180,2012-09-05 02:53:00
10:53 PM,77.0,69.1,76,29.77,10.0,South,5.8,-,N/A,,Clear,190,2012-09-05 03:53:00
11:53 PM,77.0,69.1,76,29.77,10.0,South,6.9,-,N/A,,Clear,170,2012-09-05 04:53:00